Time;durP1;ratioP1;P1;durP2;ratioP2;P2;SDS_P1;SDS_P2;PMS_P1;PMS_P2;Temp;Humidity;BMP_temperature;BMP_pressure;BME280_temperature;BME280_humidity;BME280_pressure;Samples;Min_cycle;Max_cycle;Signal;HPM_P1;HPM_P2
2022/08/01 00:00:15;;;;;;;6.72;4.18;;;;;;;;;;5079552;28;20043;-81
2022/08/01 00:02:41;;;;;;;4.47;3.15;;;;;;;;;;5090432;28;20044;-75
2022/08/01 00:05:08;;;;;;;5.60;3.88;;;;;;;;;;5077724;28;20043;-76
2022/08/01 00:07:35;;;;;;;5.78;3.60;;;;;;;;;;5061032;28;20040;-76
2022/08/01 00:10:02;;;;;;;7.05;3.78;;;;;;;;;;5077129;28;20054;-76
2022/08/01 00:12:28;;;;;;;6.60;4.75;;;;;;;;;;5059000;28;20039;-75
2022/08/01 00:14:54;;;;;;;7.45;4.28;;;;;;;;;;5060478;28;20036;-75
2022/08/01 00:17:20;;;;;;;6.00;4.05;;;;;;;;;;5060585;28;20127;-75
2022/08/01 00:19:46;;;;;;;6.65;4.20;;;;;;;;;;5076791;28;20071;-76
2022/08/01 00:22:12;;;;;;;7.43;4.30;;;;;;;;;;5078944;28;20042;-76
2022/08/01 00:24:38;;;;;;;9.95;4.45;;;;;;;;;;5063601;28;20040;-75
2022/08/01 00:27:04;;;;;;;5.43;3.85;;;;;;;;;;5060694;28;20044;-82
2022/08/01 00:29:30;;;;;;;8.23;4.63;;;;;;;;;;5078104;28;20039;-80
2022/08/01 00:31:56;;;;;;;7.10;4.65;;;;;;;;;;5078289;28;20044;-80
2022/08/01 00:34:22;;;;;;;7.72;4.47;;;;;;;;;;5090855;28;20053;-79
2022/08/01 00:36:48;;;;;;;8.55;4.97;;;;;;;;;;5090514;28;20036;-75
2022/08/01 00:39:15;;;;;;;10.63;5.15;;;;;;;;;;5085544;28;20047;-75
2022/08/01 00:41:41;;;;;;;8.57;4.80;;;;;;;;;;5073049;28;20039;-76
2022/08/01 00:44:07;;;;;;;6.53;4.40;;;;;;;;;;5077652;28;20093;-76
2022/08/01 00:46:33;;;;;;;6.68;4.85;;;;;;;;;;5060256;28;20040;-76
2022/08/01 00:49:00;;;;;;;9.70;5.40;;;;;;;;;;5069419;28;20072;-76
2022/08/01 00:51:27;;;;;;;8.07;4.82;;;;;;;;;;5069619;28;20047;-76
2022/08/01 00:53:53;;;;;;;7.80;5.28;;;;;;;;;;5039332;28;20040;-76
2022/08/01 00:56:20;;;;;;;6.65;4.75;;;;;;;;;;5067864;28;20069;-75
2022/08/01 00:58:46;;;;;;;6.13;4.82;;;;;;;;;;5058699;28;20422;-75
2022/08/01 01:01:12;;;;;;;8.32;4.53;;;;;;;;;;5059790;28;20119;-80
2022/08/01 01:03:38;;;;;;;6.75;4.20;;;;;;;;;;5077351;28;20554;-76
2022/08/01 01:06:13;;;;;;;5.13;4.35;;;;;;;;;;5059803;28;20040;-75
2022/08/01 01:08:47;;;;;;;5.95;4.75;;;;;;;;;;5059730;28;20036;-79
2022/08/01 01:11:26;;;;;;;8.35;4.70;;;;;;;;;;5077361;28;20052;-77
2022/08/01 01:14:00;;;;;;;5.45;4.00;;;;;;;;;;5094798;28;20039;-81
2022/08/01 01:16:26;;;;;;;6.80;4.57;;;;;;;;;;5077254;28;20059;-81
2022/08/01 01:18:57;;;;;;;9.07;5.00;;;;;;;;;;5088896;28;20507;-81
2022/08/01 01:21:42;;;;;;;9.10;4.50;;;;;;;;;;5093484;28;20038;-80
2022/08/01 01:24:47;;;;;;;5.75;4.03;;;;;;;;;;5076929;28;20126;-76
2022/08/01 01:27:16;;;;;;;6.90;3.72;;;;;;;;;;4985913;28;20407;-76
2022/08/01 01:29:44;;;;;;;6.15;3.90;;;;;;;;;;4998408;28;20514;-80
2022/08/01 01:32:17;;;;;;;5.57;3.50;;;;;;;;;;5044769;28;20057;-76
2022/08/01 01:34:44;;;;;;;4.40;2.97;;;;;;;;;;5066604;28;20059;-80
2022/08/01 01:37:13;;;;;;;7.25;3.10;;;;;;;;;;5075836;28;20051;-80
2022/08/01 01:39:41;;;;;;;5.07;2.95;;;;;;;;;;5072198;28;20041;-76
2022/08/01 01:42:07;;;;;;;4.63;2.60;;;;;;;;;;5071990;28;20493;-76
2022/08/01 01:44:34;;;;;;;4.47;2.90;;;;;;;;;;5072257;28;20048;-75
2022/08/01 01:47:00;;;;;;;3.20;2.50;;;;;;;;;;5080578;28;20040;-76
2022/08/01 01:49:27;;;;;;;5.07;2.85;;;;;;;;;;5092915;28;20090;-77
2022/08/01 01:51:54;;;;;;;6.22;3.05;;;;;;;;;;5059219;28;20127;-80
2022/08/01 01:54:22;;;;;;;7.63;3.50;;;;;;;;;;5072115;28;20040;-79
2022/08/01 01:56:50;;;;;;;6.80;3.50;;;;;;;;;;5054503;28;20116;-76
2022/08/01 01:59:20;;;;;;;6.78;3.67;;;;;;;;;;5055300;28;20393;-76
2022/08/01 02:01:48;;;;;;;5.45;3.35;;;;;;;;;;5052808;28;20029;-76
2022/08/01 02:04:14;;;;;;;5.28;2.95;;;;;;;;;;5052760;28;20397;-76
2022/08/01 02:06:41;;;;;;;5.53;3.95;;;;;;;;;;5051099;28;20127;-75
2022/08/01 02:09:09;;;;;;;7.15;4.10;;;;;;;;;;5070653;28;20119;-76
2022/08/01 02:11:36;;;;;;;7.65;4.30;;;;;;;;;;5054772;28;20071;-77
2022/08/01 02:14:03;;;;;;;5.60;4.30;;;;;;;;;;5071426;28;20025;-77
2022/08/01 02:16:30;;;;;;;5.80;3.47;;;;;;;;;;5072066;28;20070;-77
2022/08/01 02:18:56;;;;;;;8.45;4.38;;;;;;;;;;5070449;28;20033;-76
2022/08/01 02:21:31;;;;;;;5.70;3.72;;;;;;;;;;5071420;28;20046;-77
2022/08/01 02:24:08;;;;;;;6.40;3.75;;;;;;;;;;5071059;28;20126;-76
2022/08/01 02:26:35;;;;;;;6.38;3.90;;;;;;;;;;5074739;28;20044;-77
2022/08/01 02:29:03;;;;;;;6.00;3.85;;;;;;;;;;5060795;28;20513;-77
2022/08/01 02:31:31;;;;;;;8.60;4.00;;;;;;;;;;5064800;28;20047;-77
2022/08/01 02:34:02;;;;;;;4.82;3.35;;;;;;;;;;5080389;28;20071;-76
2022/08/01 02:36:29;;;;;;;6.65;2.97;;;;;;;;;;5075019;28;20367;-76
2022/08/01 02:38:56;;;;;;;5.20;3.10;;;;;;;;;;5073828;28;20036;-77
2022/08/01 02:41:23;;;;;;;5.22;3.17;;;;;;;;;;5067779;28;20076;-76
2022/08/01 02:43:52;;;;;;;7.82;3.47;;;;;;;;;;5047329;28;20044;-76
2022/08/01 02:46:34;;;;;;;7.03;3.80;;;;;;;;;;5073539;28;20047;-77
2022/08/01 02:49:01;;;;;;;5.38;2.70;;;;;;;;;;5082034;28;20115;-77
2022/08/01 02:51:28;;;;;;;6.97;3.00;;;;;;;;;;5074133;28;20378;-76
2022/08/01 02:53:55;;;;;;;6.50;3.00;;;;;;;;;;5073846;28;20435;-76
2022/08/01 02:56:22;;;;;;;4.90;2.72;;;;;;;;;;5072265;28;20092;-77
2022/08/01 02:58:49;;;;;;;4.78;2.50;;;;;;;;;;5074515;28;20130;-76
2022/08/01 03:01:16;;;;;;;5.35;2.20;;;;;;;;;;5073459;28;20769;-76
2022/08/01 03:03:42;;;;;;;7.13;2.88;;;;;;;;;;5072884;28;20476;-75
2022/08/01 03:06:08;;;;;;;4.97;2.80;;;;;;;;;;5074056;28;20084;-76
2022/08/01 03:08:36;;;;;;;9.25;3.25;;;;;;;;;;5057654;28;20092;-76
2022/08/01 03:11:03;;;;;;;5.70;3.03;;;;;;;;;;5057069;28;20074;-76
2022/08/01 03:13:30;;;;;;;6.10;2.40;;;;;;;;;;5074029;28;20054;-76
2022/08/01 03:15:56;;;;;;;5.65;2.60;;;;;;;;;;5074021;28;20066;-76
2022/08/01 03:18:25;;;;;;;6.22;3.15;;;;;;;;;;5059393;28;20120;-76
2022/08/01 03:20:52;;;;;;;5.35;2.55;;;;;;;;;;5073934;28;20174;-76
2022/08/01 03:23:20;;;;;;;4.90;2.60;;;;;;;;;;5059879;28;20079;-75
2022/08/01 03:25:48;;;;;;;6.03;2.67;;;;;;;;;;5078171;28;20052;-76
2022/08/01 03:28:16;;;;;;;4.72;2.60;;;;;;;;;;5078665;28;20044;-76
2022/08/01 03:30:43;;;;;;;4.43;2.33;;;;;;;;;;5077985;28;20040;-79
2022/08/01 03:33:09;;;;;;;5.53;2.55;;;;;;;;;;5044038;28;20040;-79
2022/08/01 03:35:43;;;;;;;5.57;2.33;;;;;;;;;;5058128;28;20067;-77
2022/08/01 03:38:12;;;;;;;5.93;2.30;;;;;;;;;;5068616;28;20382;-77
2022/08/01 03:40:38;;;;;;;7.93;3.08;;;;;;;;;;5060579;28;20063;-76
2022/08/01 03:43:08;;;;;;;6.00;2.22;;;;;;;;;;5064279;28;20051;-78
2022/08/01 03:45:39;;;;;;;5.72;2.30;;;;;;;;;;5077766;28;20043;-77
2022/08/01 03:48:14;;;;;;;6.95;2.20;;;;;;;;;;5077905;28;20032;-76
2022/08/01 03:50:43;;;;;;;6.38;2.20;;;;;;;;;;5047901;28;20054;-77
2022/08/01 03:53:10;;;;;;;5.22;2.30;;;;;;;;;;5077107;28;20381;-77
2022/08/01 03:55:38;;;;;;;6.68;2.47;;;;;;;;;;5060854;28;20044;-77
2022/08/01 03:58:04;;;;;;;5.75;2.40;;;;;;;;;;5077158;28;20096;-77
2022/08/01 04:00:31;;;;;;;6.57;2.25;;;;;;;;;;5077107;28;20036;-77
2022/08/01 04:02:57;;;;;;;6.53;2.33;;;;;;;;;;5080804;28;20032;-76
2022/08/01 04:05:24;;;;;;;5.28;2.60;;;;;;;;;;5087313;28;20040;-79
2022/08/01 04:07:58;;;;;;;4.68;2.00;;;;;;;;;;5060832;28;20049;-77
2022/08/01 04:10:24;;;;;;;5.90;2.20;;;;;;;;;;5071466;28;20048;-76
2022/08/01 04:12:50;;;;;;;6.53;2.63;;;;;;;;;;5063694;28;20052;-77
2022/08/01 04:15:16;;;;;;;5.68;2.40;;;;;;;;;;5081128;28;20082;-79
2022/08/01 04:17:42;;;;;;;4.85;2.40;;;;;;;;;;5059277;28;20098;-79
2022/08/01 04:20:09;;;;;;;7.95;2.78;;;;;;;;;;5073987;28;20512;-79
2022/08/01 04:22:35;;;;;;;6.57;2.40;;;;;;;;;;5060870;28;20062;-79
2022/08/01 04:25:05;;;;;;;7.63;3.03;;;;;;;;;;5073704;28;20101;-80
2022/08/01 04:27:33;;;;;;;6.47;2.53;;;;;;;;;;5064035;28;20056;-77
2022/08/01 04:29:59;;;;;;;6.13;2.53;;;;;;;;;;5065164;28;20408;-77
2022/08/01 04:32:27;;;;;;;7.22;2.70;;;;;;;;;;5056597;28;20121;-77
2022/08/01 04:34:55;;;;;;;7.93;2.65;;;;;;;;;;5062238;28;20393;-78
2022/08/01 04:37:23;;;;;;;9.80;3.13;;;;;;;;;;5069594;28;20051;-78
2022/08/01 04:39:51;;;;;;;5.68;3.05;;;;;;;;;;5063404;28;20055;-78
2022/08/01 04:42:18;;;;;;;9.65;3.92;;;;;;;;;;5076125;28;20540;-78
2022/08/01 04:44:44;;;;;;;11.10;3.55;;;;;;;;;;5062775;28;20028;-77
2022/08/01 04:47:10;;;;;;;6.55;3.00;;;;;;;;;;5067104;28;20382;-77
2022/08/01 04:49:37;;;;;;;7.25;2.88;;;;;;;;;;5074879;28;20038;-77
2022/08/01 04:52:03;;;;;;;6.72;3.60;;;;;;;;;;5062304;28;20040;-77
2022/08/01 04:54:30;;;;;;;6.25;3.30;;;;;;;;;;5059821;28;20420;-75
2022/08/01 04:56:59;;;;;;;9.75;3.10;;;;;;;;;;5076553;28;20062;-77
2022/08/01 04:59:41;;;;;;;9.80;2.97;;;;;;;;;;5059672;28;20472;-77
2022/08/01 05:02:09;;;;;;;11.90;3.50;;;;;;;;;;5076734;28;20040;-77
2022/08/01 05:04:35;;;;;;;10.98;3.72;;;;;;;;;;5075989;28;20040;-77
2022/08/01 05:07:01;;;;;;;12.25;3.80;;;;;;;;;;5076705;28;20477;-77
2022/08/01 05:09:27;;;;;;;10.68;3.83;;;;;;;;;;5076056;28;20079;-77
2022/08/01 05:11:53;;;;;;;12.32;3.45;;;;;;;;;;5060039;28;20484;-77
2022/08/01 05:14:20;;;;;;;11.68;3.22;;;;;;;;;;5075744;28;20054;-76
2022/08/01 05:16:47;;;;;;;10.63;3.45;;;;;;;;;;5080861;28;20427;-77
2022/08/01 05:19:13;;;;;;;13.88;3.22;;;;;;;;;;5075791;28;20047;-77
2022/08/01 05:21:39;;;;;;;15.07;3.30;;;;;;;;;;5075899;28;20070;-77
2022/08/01 05:24:05;;;;;;;10.35;3.38;;;;;;;;;;5059214;28;20433;-77
2022/08/01 05:26:31;;;;;;;10.38;3.33;;;;;;;;;;5075343;28;20079;-76
2022/08/01 05:28:57;;;;;;;14.27;3.42;;;;;;;;;;5070141;28;20048;-77
2022/08/01 05:31:23;;;;;;;16.30;3.20;;;;;;;;;;5058732;28;20044;-77
2022/08/01 05:33:50;;;;;;;10.68;2.97;;;;;;;;;;5073710;28;20047;-76
2022/08/01 05:36:16;;;;;;;17.75;4.07;;;;;;;;;;5059286;28;20455;-76
2022/08/01 05:38:42;;;;;;;12.27;3.13;;;;;;;;;;5079163;28;20123;-76
2022/08/01 05:41:08;;;;;;;9.55;3.05;;;;;;;;;;5075612;28;20036;-77
2022/08/01 05:43:34;;;;;;;14.50;3.42;;;;;;;;;;5075374;28;20036;-76
2022/08/01 05:46:01;;;;;;;13.60;3.10;;;;;;;;;;5072841;28;20566;-77
2022/08/01 05:48:27;;;;;;;16.92;3.42;;;;;;;;;;5075034;28;20044;-78
2022/08/01 05:50:53;;;;;;;15.88;3.20;;;;;;;;;;5075580;28;20043;-78
2022/08/01 05:53:19;;;;;;;13.27;3.00;;;;;;;;;;5075064;28;20044;-79
2022/08/01 05:55:46;;;;;;;10.60;2.83;;;;;;;;;;5075005;28;20127;-77
2022/08/01 05:58:12;;;;;;;14.40;3.55;;;;;;;;;;5075094;28;20036;-79
2022/08/01 06:00:38;;;;;;;10.32;3.00;;;;;;;;;;5073849;28;20548;-80
2022/08/01 06:03:04;;;;;;;13.57;2.97;;;;;;;;;;5077892;28;20040;-80
2022/08/01 06:05:30;;;;;;;15.23;3.38;;;;;;;;;;5058406;28;20378;-78
2022/08/01 06:07:57;;;;;;;15.52;2.67;;;;;;;;;;5056647;28;20036;-79
2022/08/01 06:10:24;;;;;;;15.30;3.05;;;;;;;;;;5074625;28;20044;-78
2022/08/01 06:12:50;;;;;;;16.00;3.30;;;;;;;;;;5074947;28;20048;-77
2022/08/01 06:15:16;;;;;;;13.65;3.22;;;;;;;;;;5072438;28;20082;-79
2022/08/01 06:17:42;;;;;;;16.42;3.17;;;;;;;;;;5077972;28;20036;-78
2022/08/01 06:20:08;;;;;;;11.75;2.90;;;;;;;;;;5062149;28;20110;-79
2022/08/01 06:22:35;;;;;;;10.35;3.00;;;;;;;;;;5073051;28;20041;-79
2022/08/01 06:25:01;;;;;;;11.73;3.20;;;;;;;;;;5077569;28;20068;-79
2022/08/01 06:27:27;;;;;;;12.75;2.95;;;;;;;;;;5065253;28;20126;-78
2022/08/01 06:29:53;;;;;;;14.45;3.30;;;;;;;;;;5049556;28;20051;-79
2022/08/01 06:32:22;;;;;;;11.75;3.00;;;;;;;;;;5059781;28;20056;-79
2022/08/01 06:34:48;;;;;;;12.00;2.72;;;;;;;;;;5056958;28;20512;-78
2022/08/01 06:37:15;;;;;;;14.38;2.83;;;;;;;;;;5077342;28;20045;-78
2022/08/01 06:39:41;;;;;;;13.35;3.13;;;;;;;;;;5067429;28;20047;-78
2022/08/01 06:42:09;;;;;;;15.70;2.95;;;;;;;;;;5058590;28;20067;-78
2022/08/01 06:44:35;;;;;;;13.90;2.90;;;;;;;;;;5074108;28;20036;-77
2022/08/01 06:47:01;;;;;;;13.63;2.78;;;;;;;;;;5074735;28;20563;-77
2022/08/01 06:49:27;;;;;;;11.63;3.00;;;;;;;;;;5073983;28;20046;-78
2022/08/01 06:51:53;;;;;;;18.05;3.13;;;;;;;;;;5058176;28;20434;-77
2022/08/01 06:54:20;;;;;;;13.05;3.63;;;;;;;;;;5057906;28;20547;-76
2022/08/01 06:56:46;;;;;;;15.98;2.70;;;;;;;;;;5073570;28;20078;-77
2022/08/01 06:59:13;;;;;;;13.32;2.53;;;;;;;;;;5073398;28;20036;-76
2022/08/01 07:01:39;;;;;;;13.30;3.13;;;;;;;;;;5073982;28;20067;-76
2022/08/01 07:04:05;;;;;;;14.88;3.25;;;;;;;;;;5041036;28;20049;-77
2022/08/01 07:06:31;;;;;;;17.23;2.88;;;;;;;;;;5071473;28;20062;-76
2022/08/01 07:08:57;;;;;;;10.15;2.67;;;;;;;;;;5074826;28;20067;-76
2022/08/01 07:11:24;;;;;;;13.63;2.67;;;;;;;;;;5074133;28;20450;-76
2022/08/01 07:13:50;;;;;;;15.68;3.55;;;;;;;;;;5073987;28;20048;-76
2022/08/01 07:16:17;;;;;;;13.27;3.05;;;;;;;;;;5073847;28;20047;-76
2022/08/01 07:18:43;;;;;;;14.20;3.47;;;;;;;;;;5072847;28;20039;-76
2022/08/01 07:21:09;;;;;;;15.77;2.72;;;;;;;;;;5074047;28;20043;-77
2022/08/01 07:23:35;;;;;;;11.70;2.78;;;;;;;;;;5037222;28;20051;-76
2022/08/01 07:26:03;;;;;;;13.90;2.50;;;;;;;;;;5063916;28;20047;-76
2022/08/01 07:28:30;;;;;;;11.85;2.47;;;;;;;;;;5083747;28;20032;-76
2022/08/01 07:30:57;;;;;;;14.98;2.78;;;;;;;;;;5074530;28;20504;-75
2022/08/01 07:33:23;;;;;;;14.48;2.63;;;;;;;;;;5056869;28;20043;-78
2022/08/01 07:35:49;;;;;;;15.95;2.80;;;;;;;;;;5073650;28;20849;-77
2022/08/01 07:38:16;;;;;;;15.48;3.95;;;;;;;;;;5073106;28;20508;-81
2022/08/01 07:40:43;;;;;;;13.18;2.40;;;;;;;;;;5075654;28;20047;-81
2022/08/01 07:43:09;;;;;;;13.52;2.70;;;;;;;;;;5052805;28;20043;-79
2022/08/01 07:45:35;;;;;;;14.98;2.50;;;;;;;;;;5065517;28;20032;-78
2022/08/01 07:48:05;;;;;;;15.18;3.15;;;;;;;;;;5090482;28;20040;-85
2022/08/01 07:50:31;;;;;;;10.45;2.33;;;;;;;;;;5056819;28;20040;-82
2022/08/01 07:52:57;;;;;;;13.52;2.65;;;;;;;;;;5059165;28;20034;-75
2022/08/01 07:55:23;;;;;;;13.32;2.40;;;;;;;;;;5057170;28;20040;-76
2022/08/01 07:57:50;;;;;;;13.60;2.70;;;;;;;;;;5073476;28;20044;-81
2022/08/01 08:00:16;;;;;;;10.57;2.42;;;;;;;;;;5057242;28;20047;-80
2022/08/01 08:02:42;;;;;;;12.75;2.40;;;;;;;;;;5056589;28;20047;-81
2022/08/01 08:05:08;;;;;;;10.18;2.20;;;;;;;;;;5087357;28;20047;-82
2022/08/01 08:07:35;;;;;;;11.70;2.63;;;;;;;;;;5072898;28;20040;-76
2022/08/01 08:10:01;;;;;;;11.98;2.35;;;;;;;;;;5077322;28;20035;-77
2022/08/01 08:12:27;;;;;;;9.40;1.95;;;;;;;;;;5059876;28;20104;-80
2022/08/01 08:14:53;;;;;;;12.25;2.53;;;;;;;;;;5080172;28;20096;-81
2022/08/01 08:17:19;;;;;;;10.32;1.95;;;;;;;;;;5060717;28;20051;-82
2022/08/01 08:19:45;;;;;;;13.95;2.58;;;;;;;;;;5078162;28;20113;-76
2022/08/01 08:22:11;;;;;;;12.50;2.70;;;;;;;;;;5076480;28;20035;-78
2022/08/01 08:24:37;;;;;;;9.38;2.05;;;;;;;;;;5082902;28;20035;-76
2022/08/01 08:27:04;;;;;;;12.02;2.30;;;;;;;;;;5092750;28;20497;-79
2022/08/01 08:29:34;;;;;;;10.48;2.15;;;;;;;;;;5077067;28;20040;-76
2022/08/01 08:32:00;;;;;;;9.65;1.95;;;;;;;;;;5087990;28;20119;-80
2022/08/01 08:34:27;;;;;;;8.82;1.90;;;;;;;;;;5077868;28;20070;-79
2022/08/01 08:36:55;;;;;;;7.82;2.05;;;;;;;;;;5077743;28;20036;-80
2022/08/01 08:39:21;;;;;;;11.13;2.05;;;;;;;;;;5078114;28;20044;-82
2022/08/01 08:41:48;;;;;;;9.48;2.30;;;;;;;;;;5054438;28;20033;-82
2022/08/01 08:44:14;;;;;;;6.95;1.80;;;;;;;;;;5074971;28;20040;-84
2022/08/01 08:46:44;;;;;;;11.27;1.60;;;;;;;;;;5065223;28;20035;-83
2022/08/01 08:49:11;;;;;;;8.77;1.83;;;;;;;;;;5097598;28;20044;-85
2022/08/01 08:51:39;;;;;;;10.77;2.00;;;;;;;;;;5085918;28;20131;-83
2022/08/01 08:54:06;;;;;;;6.65;1.70;;;;;;;;;;5079266;28;20135;-80
2022/08/01 08:56:35;;;;;;;7.05;1.70;;;;;;;;;;5076886;28;20390;-91
2022/08/01 08:59:01;;;;;;;5.57;1.50;;;;;;;;;;5060854;28;20036;-86
2022/08/01 09:01:28;;;;;;;6.82;1.63;;;;;;;;;;5045455;28;20043;-84
2022/08/01 09:03:54;;;;;;;6.93;1.45;;;;;;;;;;5068673;28;20066;-86
2022/08/01 09:06:20;;;;;;;6.78;1.88;;;;;;;;;;5072662;28;20510;-87
2022/08/01 09:08:47;;;;;;;6.38;1.48;;;;;;;;;;5088630;28;20028;-87
2022/08/01 09:11:13;;;;;;;8.10;1.58;;;;;;;;;;5062294;28;20089;-88
2022/08/01 09:13:39;;;;;;;7.03;1.70;;;;;;;;;;5079299;28;20041;-88
2022/08/01 09:16:06;;;;;;;4.50;1.50;;;;;;;;;;5077074;28;20044;-84
2022/08/01 09:18:44;;;;;;;7.00;1.50;;;;;;;;;;5078051;28;20039;-85
2022/08/01 09:21:14;;;;;;;6.47;1.50;;;;;;;;;;5075596;28;20398;-78
2022/08/01 09:23:47;;;;;;;8.85;1.52;;;;;;;;;;5071289;28;20043;-83
2022/08/01 09:26:15;;;;;;;6.00;1.65;;;;;;;;;;5067930;28;20044;-81
2022/08/01 09:28:42;;;;;;;7.78;1.75;;;;;;;;;;5093269;28;20556;-86
2022/08/01 09:31:09;;;;;;;6.07;1.67;;;;;;;;;;5087661;28;20072;-84
2022/08/01 09:33:47;;;;;;;7.60;1.60;;;;;;;;;;5060746;28;20431;-87
2022/08/01 09:36:13;;;;;;;6.05;1.83;;;;;;;;;;5063305;28;20039;-81
2022/08/01 09:38:40;;;;;;;5.70;1.60;;;;;;;;;;5077538;28;20044;-86
2022/08/01 09:41:07;;;;;;;4.78;1.33;;;;;;;;;;5076370;28;20109;-85
2022/08/01 09:43:33;;;;;;;7.50;1.50;;;;;;;;;;5076352;28;20048;-88
2022/08/01 09:46:00;;;;;;;8.23;1.60;;;;;;;;;;5078609;28;20233;-84
2022/08/01 09:48:27;;;;;;;5.30;1.60;;;;;;;;;;5088349;28;20393;-89
2022/08/01 09:50:53;;;;;;;6.03;1.33;;;;;;;;;;5076480;28;20507;-86
2022/08/01 09:53:20;;;;;;;7.72;1.40;;;;;;;;;;5060541;28;20133;-87
2022/08/01 09:55:46;;;;;;;8.95;1.52;;;;;;;;;;5076002;28;20039;-91
2022/08/01 09:58:12;;;;;;;9.10;1.40;;;;;;;;;;5083458;28;20489;-86
2022/08/01 10:00:39;;;;;;;7.35;1.52;;;;;;;;;;5075246;28;20048;-85
2022/08/01 10:03:25;;;;;;;7.95;1.70;;;;;;;;;;5042207;28;20028;-85
2022/08/01 10:05:53;;;;;;;7.82;1.50;;;;;;;;;;5071382;28;20092;-86
2022/08/01 10:08:22;;;;;;;5.40;1.40;;;;;;;;;;5076904;28;20031;-89
2022/08/01 10:11:06;;;;;;;8.10;1.70;;;;;;;;;;5058984;28;20071;-86
2022/08/01 10:13:33;;;;;;;6.40;1.50;;;;;;;;;;5075758;28;20043;-87
2022/08/01 10:16:00;;;;;;;6.65;1.42;;;;;;;;;;5074864;28;20488;-90
2022/08/01 10:18:27;;;;;;;7.90;1.45;;;;;;;;;;5059465;28;20114;-87
2022/08/01 10:20:54;;;;;;;5.45;1.40;;;;;;;;;;5068811;28;20043;-86
2022/08/01 10:23:20;;;;;;;6.00;1.45;;;;;;;;;;5079248;28;20534;-90
2022/08/01 10:25:46;;;;;;;3.25;1.10;;;;;;;;;;5067785;28;20135;-89
2022/08/01 10:28:16;;;;;;;8.07;1.65;;;;;;;;;;5089131;28;20071;-88
2022/08/01 10:30:42;;;;;;;7.47;1.73;;;;;;;;;;5074943;28;20043;-88
2022/08/01 10:33:09;;;;;;;6.97;1.30;;;;;;;;;;5051048;28;20070;-80
2022/08/01 10:35:35;;;;;;;7.18;1.65;;;;;;;;;;5074362;28;20115;-82
2022/08/01 10:38:01;;;;;;;5.28;1.30;;;;;;;;;;5073941;28;20430;-77
2022/08/01 10:40:28;;;;;;;11.07;1.30;;;;;;;;;;5057962;28;20515;-79
2022/08/01 10:42:54;;;;;;;7.63;1.17;;;;;;;;;;5045558;28;20389;-78
2022/08/01 10:45:20;;;;;;;6.03;1.65;;;;;;;;;;5074745;28;20047;-77
2022/08/01 10:47:53;;;;;;;5.63;1.40;;;;;;;;;;5058215;28;20036;-80
2022/08/01 10:50:25;;;;;;;4.35;1.35;;;;;;;;;;5075256;28;20599;-82
2022/08/01 10:53:04;;;;;;;5.93;1.50;;;;;;;;;;5074600;28;20047;-75
2022/08/01 10:55:45;;;;;;;6.13;1.52;;;;;;;;;;5077433;28;20166;-74
2022/08/01 10:58:11;;;;;;;6.32;1.25;;;;;;;;;;5072868;28;20040;-89
2022/08/01 11:00:37;;;;;;;11.95;1.90;;;;;;;;;;5082181;28;20400;-85
2022/08/01 11:03:04;;;;;;;6.30;1.20;;;;;;;;;;5069033;28;20032;-83
2022/08/01 11:05:34;;;;;;;4.47;1.30;;;;;;;;;;5081715;28;20039;-80
2022/08/01 11:08:06;;;;;;;6.70;1.33;;;;;;;;;;5063709;28;20050;-80
2022/08/01 11:10:35;;;;;;;7.63;1.40;;;;;;;;;;5051463;28;20044;-81
2022/08/01 11:13:05;;;;;;;5.32;1.38;;;;;;;;;;5047216;28;20436;-79
2022/08/01 11:15:31;;;;;;;6.55;1.27;;;;;;;;;;5066450;28;20045;-81
2022/08/01 11:17:59;;;;;;;7.13;1.20;;;;;;;;;;5071785;28;20446;-79
2022/08/01 11:20:29;;;;;;;4.85;1.05;;;;;;;;;;5069406;28;20086;-82
2022/08/01 11:23:05;;;;;;;7.00;1.10;;;;;;;;;;5049290;28;20043;-78
2022/08/01 11:25:37;;;;;;;3.80;1.08;;;;;;;;;;5073378;28;20039;-79
2022/08/01 11:28:23;;;;;;;4.55;1.30;;;;;;;;;;5079270;28;20123;-77
2022/08/01 11:31:12;;;;;;;5.82;1.30;;;;;;;;;;5070235;28;20036;-77
2022/08/01 11:33:41;;;;;;;4.00;0.95;;;;;;;;;;5055474;28;20060;-76
2022/08/01 11:36:10;;;;;;;6.13;0.95;;;;;;;;;;5075269;28;20140;-74
2022/08/01 11:38:37;;;;;;;6.57;1.20;;;;;;;;;;5094062;28;20089;-82
2022/08/01 11:41:23;;;;;;;4.90;1.30;;;;;;;;;;5074881;28;20036;-76
2022/08/01 11:44:00;;;;;;;6.15;1.60;;;;;;;;;;5082766;28;20040;-78
2022/08/01 11:46:45;;;;;;;13.30;1.63;;;;;;;;;;5070634;28;20047;-78
2022/08/01 11:49:24;;;;;;;5.78;1.40;;;;;;;;;;5072015;28;20052;-78
2022/08/01 11:51:57;;;;;;;4.70;1.13;;;;;;;;;;5083614;28;20528;-80
2022/08/01 11:54:29;;;;;;;3.83;0.90;;;;;;;;;;5077038;28;20047;-74
2022/08/01 11:56:56;;;;;;;3.70;0.90;;;;;;;;;;5083312;28;20028;-75
2022/08/01 11:59:23;;;;;;;6.85;1.15;;;;;;;;;;5073823;28;20051;-74
2022/08/01 12:01:49;;;;;;;6.00;0.95;;;;;;;;;;5089178;28;20063;-74
2022/08/01 12:04:15;;;;;;;6.78;1.02;;;;;;;;;;5085330;28;20046;-74
2022/08/01 12:06:41;;;;;;;7.20;1.10;;;;;;;;;;5089872;28;20035;-75
2022/08/01 12:09:20;;;;;;;6.15;1.27;;;;;;;;;;5067724;28;20041;-74
2022/08/01 12:11:47;;;;;;;3.97;1.05;;;;;;;;;;5086804;28;20035;-73
2022/08/01 12:14:17;;;;;;;7.20;1.30;;;;;;;;;;5089931;28;20039;-74
2022/08/01 12:16:50;;;;;;;4.38;1.25;;;;;;;;;;5084687;28;20549;-73
2022/08/01 12:19:23;;;;;;;6.80;1.30;;;;;;;;;;5085972;28;20054;-71
2022/08/01 12:22:08;;;;;;;4.60;1.27;;;;;;;;;;5070219;28;20032;-71
2022/08/01 12:24:35;;;;;;;6.30;1.00;;;;;;;;;;5087391;28;20036;-71
2022/08/01 12:27:01;;;;;;;4.72;1.02;;;;;;;;;;5091965;28;20446;-83
2022/08/01 12:29:34;;;;;;;3.55;1.00;;;;;;;;;;5070374;28;20106;-84
2022/08/01 12:32:01;;;;;;;5.38;1.20;;;;;;;;;;5047249;28;20154;-81
2022/08/01 12:34:28;;;;;;;5.32;1.27;;;;;;;;;;5083327;28;20947;-82
2022/08/01 12:36:55;;;;;;;5.75;1.30;;;;;;;;;;5083751;28;20063;-81
2022/08/01 12:39:22;;;;;;;5.93;1.20;;;;;;;;;;5081705;28;20561;-85
2022/08/01 12:41:48;;;;;;;6.40;1.02;;;;;;;;;;5076601;28;20044;-79
2022/08/01 12:44:15;;;;;;;6.50;1.60;;;;;;;;;;5076123;28;20040;-82
2022/08/01 12:46:41;;;;;;;4.78;1.20;;;;;;;;;;5077297;28;20040;-85
2022/08/01 12:49:08;;;;;;;6.13;1.08;;;;;;;;;;5075545;28;20048;-83
2022/08/01 12:51:34;;;;;;;7.40;1.17;;;;;;;;;;5060014;28;20036;-83
2022/08/01 12:54:00;;;;;;;5.93;1.20;;;;;;;;;;5076812;28;20093;-77
2022/08/01 12:56:33;;;;;;;5.18;1.23;;;;;;;;;;5074870;28;20051;-78
2022/08/01 12:59:00;;;;;;;4.35;1.10;;;;;;;;;;5080380;28;20071;-79
2022/08/01 13:01:27;;;;;;;3.92;1.08;;;;;;;;;;5075551;28;20560;-80
2022/08/01 13:04:04;;;;;;;10.00;1.17;;;;;;;;;;5058663;28;20044;-80
2022/08/01 13:06:30;;;;;;;5.85;1.25;;;;;;;;;;5075756;28;20524;-81
2022/08/01 13:09:05;;;;;;;5.07;1.23;;;;;;;;;;5075284;28;20071;-78
2022/08/01 13:11:31;;;;;;;6.13;1.35;;;;;;;;;;5058040;28;20051;-79
2022/08/01 13:13:57;;;;;;;7.10;1.15;;;;;;;;;;5057827;28;20044;-78
2022/08/01 13:16:25;;;;;;;6.57;1.05;;;;;;;;;;5075335;28;20105;-79
2022/08/01 13:18:52;;;;;;;4.60;0.95;;;;;;;;;;5075952;28;20032;-76
2022/08/01 13:21:23;;;;;;;5.57;1.10;;;;;;;;;;5068874;28;20043;-76
2022/08/01 13:24:18;;;;;;;6.35;1.08;;;;;;;;;;5047061;28;20032;-79
2022/08/01 13:26:46;;;;;;;4.93;1.30;;;;;;;;;;5053058;28;20494;-79
2022/08/01 13:29:25;;;;;;;6.45;1.30;;;;;;;;;;5086904;28;20128;-77
2022/08/01 13:31:51;;;;;;;4.00;1.00;;;;;;;;;;5075247;28;20128;-78
2022/08/01 13:34:17;;;;;;;6.63;1.13;;;;;;;;;;5058370;28;20040;-79
2022/08/01 13:36:43;;;;;;;4.13;1.00;;;;;;;;;;5075415;28;20035;-81
2022/08/01 13:41:55;;;;;;;5.40;1.13;;;;;;;;;;5085635;28;20044;-77
2022/08/01 13:44:21;;;;;;;4.18;0.90;;;;;;;;;;5074175;28;20035;-78
2022/08/01 13:46:50;;;;;;;5.22;1.20;;;;;;;;;;5059144;28;20050;-77
2022/08/01 13:49:16;;;;;;;4.82;1.00;;;;;;;;;;5074927;28;20496;-79
2022/08/01 13:51:42;;;;;;;6.70;1.35;;;;;;;;;;5058827;28;20063;-79
2022/08/01 13:54:08;;;;;;;4.45;1.10;;;;;;;;;;5074631;28;20089;-75
2022/08/01 13:56:34;;;;;;;5.35;1.17;;;;;;;;;;5074496;28;20114;-78
2022/08/01 13:59:00;;;;;;;6.90;1.23;;;;;;;;;;5074911;28;20097;-78
2022/08/01 14:01:26;;;;;;;4.28;1.05;;;;;;;;;;5074034;28;20400;-79
2022/08/01 14:03:53;;;;;;;7.78;1.25;;;;;;;;;;5074804;28;20492;-77
2022/08/01 14:06:22;;;;;;;5.90;1.20;;;;;;;;;;5057699;28;20122;-82
2022/08/01 14:08:48;;;;;;;5.97;1.20;;;;;;;;;;5075203;28;20093;-80
2022/08/01 14:11:14;;;;;;;6.78;1.40;;;;;;;;;;5075094;28;20048;-74
2022/08/01 14:13:40;;;;;;;3.63;1.00;;;;;;;;;;5092878;28;20081;-80
2022/08/01 14:16:07;;;;;;;7.15;1.30;;;;;;;;;;5092387;28;20067;-78
2022/08/01 14:18:33;;;;;;;4.43;0.98;;;;;;;;;;5058711;28;20488;-82
2022/08/01 14:21:00;;;;;;;9.55;1.33;;;;;;;;;;5074932;28;20365;-80
2022/08/01 14:23:26;;;;;;;4.88;1.10;;;;;;;;;;5075354;28;20040;-81
2022/08/01 14:25:52;;;;;;;5.82;1.20;;;;;;;;;;5072021;28;20117;-81
2022/08/01 14:28:19;;;;;;;3.95;0.90;;;;;;;;;;5055790;28;20043;-79
2022/08/01 14:30:45;;;;;;;4.32;1.02;;;;;;;;;;5058609;28;20066;-81
2022/08/01 14:33:11;;;;;;;6.03;1.08;;;;;;;;;;5078294;28;20123;-81
2022/08/01 14:35:37;;;;;;;5.97;1.00;;;;;;;;;;5063275;28;20105;-79
2022/08/01 14:38:04;;;;;;;5.22;1.00;;;;;;;;;;5075024;28;20031;-80
2022/08/01 14:40:30;;;;;;;3.85;1.10;;;;;;;;;;5080973;28;20503;-80
2022/08/01 14:42:56;;;;;;;6.82;1.30;;;;;;;;;;5075419;28;20075;-80
2022/08/01 14:45:22;;;;;;;6.57;1.17;;;;;;;;;;5073825;28;20040;-79
2022/08/01 14:47:48;;;;;;;5.70;1.20;;;;;;;;;;5071198;28;20048;-81